createdAt,value
2022-10-18T00:02:22.459Z,1.30
2022-10-18T00:04:48.946Z,1.63
2022-10-18T00:07:15.468Z,1.70
2022-10-18T00:09:41.987Z,1.40
2022-10-18T00:12:08.530Z,1.70
2022-10-18T00:14:34.992Z,1.80
2022-10-18T00:17:01.553Z,1.38
2022-10-18T00:19:29.362Z,1.38
2022-10-18T00:21:56.304Z,1.52
2022-10-18T00:24:22.760Z,1.08
2022-10-18T00:26:49.199Z,1.73
2022-10-18T00:29:17.946Z,1.52
2022-10-18T00:31:44.947Z,1.42
2022-10-18T00:34:13.969Z,1.50
2022-10-18T00:36:41.459Z,1.42
2022-10-18T00:39:09.590Z,1.48
2022-10-18T00:41:38.021Z,1.60
2022-10-18T00:44:27.517Z,1.30
2022-10-18T00:47:01.640Z,1.30
2022-10-18T00:49:33.923Z,1.35
2022-10-18T00:52:09.810Z,1.40
2022-10-18T00:54:40.304Z,1.60
2022-10-18T00:57:07.810Z,1.10
2022-10-18T00:59:35.180Z,1.40
2022-10-18T01:04:28.573Z,1.23
2022-10-18T01:07:06.997Z,1.42
2022-10-18T01:10:12.246Z,1.30
2022-10-18T01:12:57.368Z,1.30
2022-10-18T01:15:42.153Z,1.40
2022-10-18T01:18:23.886Z,1.40
2022-10-18T01:21:10.637Z,1.23
2022-10-18T01:23:55.084Z,1.20
2022-10-18T01:26:39.940Z,1.10
2022-10-18T01:29:24.925Z,1.33
2022-10-18T01:32:02.465Z,1.55
2022-10-18T01:34:33.873Z,1.33
2022-10-18T01:37:03.065Z,1.25
2022-10-18T01:39:36.798Z,1.33
2022-10-18T01:42:10.364Z,1.40
2022-10-18T01:44:39.636Z,1.33
2022-10-18T01:47:09.398Z,1.25
2022-10-18T01:49:35.865Z,1.50
2022-10-18T01:52:02.401Z,1.27
2022-10-18T01:54:36.530Z,1.23
2022-10-18T01:57:11.981Z,1.15
2022-10-18T01:59:56.437Z,1.27
2022-10-18T02:02:53.777Z,1.60
2022-10-18T02:05:41.504Z,1.00
2022-10-18T02:08:24.331Z,1.40
2022-10-18T02:11:07.880Z,1.30
2022-10-18T02:13:42.216Z,1.48
2022-10-18T02:16:14.513Z,1.30
2022-10-18T02:18:48.256Z,1.23
2022-10-18T02:21:19.079Z,1.17
2022-10-18T02:23:47.045Z,1.42
2022-10-18T02:26:16.830Z,1.33
2022-10-18T02:28:44.127Z,1.27
2022-10-18T02:33:55.961Z,1.08
2022-10-18T02:38:56.800Z,1.10
2022-10-18T02:41:26.426Z,1.08
2022-10-18T02:43:53.480Z,1.23
2022-10-18T02:46:20.798Z,1.30
2022-10-18T02:51:13.824Z,1.27
2022-10-18T02:53:40.306Z,1.30
2022-10-18T02:56:07.004Z,1.42
2022-10-18T02:58:33.475Z,1.27
2022-10-18T03:00:59.949Z,1.30
2022-10-18T03:03:26.409Z,1.25
2022-10-18T03:05:53.030Z,1.05
2022-10-18T03:08:19.559Z,1.38
2022-10-18T03:10:47.197Z,1.38
2022-10-18T03:13:14.050Z,1.10
2022-10-18T03:15:40.573Z,1.10
2022-10-18T03:18:07.004Z,1.15
2022-10-18T03:20:34.272Z,1.25
2022-10-18T03:23:00.729Z,1.30
2022-10-18T03:25:27.226Z,1.27
2022-10-18T03:27:53.680Z,1.25
2022-10-18T03:30:20.136Z,1.20
2022-10-18T03:32:46.594Z,1.20
2022-10-18T03:35:13.036Z,1.02
2022-10-18T03:37:39.526Z,1.30
2022-10-18T03:40:06.817Z,1.33
2022-10-18T03:42:33.431Z,1.60
2022-10-18T03:45:00.089Z,1.27
2022-10-18T03:47:26.565Z,1.10
2022-10-18T03:49:56.237Z,1.20
2022-10-18T03:52:23.938Z,1.13
2022-10-18T03:54:50.397Z,1.25
2022-10-18T03:57:16.857Z,1.02
2022-10-18T03:59:43.533Z,1.27
2022-10-18T04:02:10.246Z,1.05
2022-10-18T04:04:36.675Z,1.20
2022-10-18T04:07:03.143Z,1.08
2022-10-18T04:09:29.604Z,1.40
2022-10-18T04:11:56.062Z,1.23
2022-10-18T04:14:22.642Z,1.25
2022-10-18T04:16:49.196Z,1.20
2022-10-18T04:19:15.875Z,0.88
2022-10-18T04:21:42.331Z,1.20
2022-10-18T04:24:08.838Z,1.30
2022-10-18T04:26:35.413Z,1.27
2022-10-18T04:29:02.035Z,1.55
2022-10-18T04:31:28.549Z,0.90
2022-10-18T04:33:55.048Z,1.10
2022-10-18T04:36:21.517Z,1.13
2022-10-18T04:38:47.982Z,0.90
2022-10-18T04:41:14.433Z,1.13
2022-10-18T04:43:40.946Z,1.23
2022-10-18T04:46:07.430Z,1.00
2022-10-18T04:48:33.974Z,1.50
2022-10-18T04:51:00.484Z,1.02
2022-10-18T04:53:27.107Z,1.33
2022-10-18T04:55:53.649Z,1.30
2022-10-18T04:58:20.137Z,1.20
2022-10-18T05:00:47.787Z,1.60
2022-10-18T05:03:15.012Z,1.00
2022-10-18T05:06:00.629Z,1.40
2022-10-18T05:08:28.409Z,1.35
2022-10-18T05:10:54.907Z,1.10
2022-10-18T05:13:21.486Z,0.98
2022-10-18T05:15:47.950Z,1.20
2022-10-18T05:18:14.498Z,1.13
2022-10-18T05:20:40.978Z,1.00
2022-10-18T05:23:10.723Z,1.30
2022-10-18T05:25:41.639Z,1.10
2022-10-18T05:28:21.108Z,1.40
2022-10-18T05:30:55.174Z,1.40
2022-10-18T05:33:21.624Z,1.52
2022-10-18T05:35:48.073Z,1.20
2022-10-18T05:38:14.518Z,1.25
2022-10-18T05:40:40.955Z,1.42
2022-10-18T05:43:07.387Z,1.40
2022-10-18T05:45:33.851Z,1.42
2022-10-18T05:48:00.540Z,1.67
2022-10-18T05:50:26.980Z,1.50
2022-10-18T05:53:02.752Z,1.33
2022-10-18T05:55:39.331Z,1.50
2022-10-18T05:58:05.862Z,1.65
2022-10-18T06:00:32.397Z,1.48
2022-10-18T06:03:00.343Z,1.50
2022-10-18T06:05:27.406Z,1.55
2022-10-18T06:07:54.004Z,1.40
2022-10-18T06:10:20.466Z,1.42
2022-10-18T06:12:46.917Z,1.75
2022-10-18T06:15:13.438Z,1.65
2022-10-18T06:17:39.889Z,1.88
2022-10-18T06:20:07.513Z,1.52
2022-10-18T06:22:34.076Z,1.90
2022-10-18T06:25:00.552Z,1.65
2022-10-18T06:27:27.049Z,1.63
2022-10-18T06:29:53.508Z,1.35
2022-10-18T06:32:20.158Z,1.92
2022-10-18T06:34:46.593Z,1.60
2022-10-18T06:37:13.116Z,1.48
2022-10-18T06:39:39.580Z,1.70
2022-10-18T06:42:06.039Z,1.70
2022-10-18T06:44:32.510Z,1.70
2022-10-18T06:46:58.985Z,1.65
2022-10-18T06:49:25.454Z,1.85
2022-10-18T06:51:54.180Z,1.75
2022-10-18T06:54:20.828Z,1.58
2022-10-18T06:56:47.312Z,1.60
2022-10-18T06:59:14.102Z,1.48
2022-10-18T07:01:40.823Z,1.83
2022-10-18T07:04:07.398Z,1.80
2022-10-18T07:06:33.989Z,2.10
2022-10-18T07:09:02.902Z,1.77
2022-10-18T07:11:29.536Z,2.03
2022-10-18T07:14:03.004Z,1.70
2022-10-18T07:18:56.031Z,1.80
2022-10-18T07:21:24.258Z,2.05
2022-10-18T07:23:51.611Z,1.80
2022-10-18T07:28:49.440Z,1.77
2022-10-18T07:31:16.299Z,2.03
2022-10-18T07:33:45.385Z,1.75
2022-10-18T07:36:12.814Z,1.98
2022-10-18T07:38:39.733Z,1.88
2022-10-18T07:41:07.533Z,2.03
2022-10-18T07:43:34.871Z,1.88
2022-10-18T07:48:28.971Z,1.67
2022-10-18T07:50:58.720Z,1.80
2022-10-18T07:53:25.484Z,1.63
2022-10-18T07:55:51.936Z,1.92
2022-10-18T07:58:18.442Z,1.80
2022-10-18T08:00:44.896Z,1.85
2022-10-18T08:03:11.352Z,1.90
2022-10-18T08:05:37.902Z,1.65
2022-10-18T08:08:07.879Z,2.30
2022-10-18T08:10:35.543Z,1.60
2022-10-18T08:13:01.993Z,2.10
2022-10-18T08:15:28.457Z,1.63
2022-10-18T08:17:54.925Z,1.60
2022-10-18T08:20:30.442Z,2.00
2022-10-18T08:23:00.371Z,2.20
2022-10-18T08:25:27.687Z,1.88
2022-10-18T08:27:54.217Z,2.15
2022-10-18T08:30:20.805Z,1.98
2022-10-18T08:32:47.277Z,2.00
2022-10-18T08:35:13.852Z,1.98
2022-10-18T08:37:40.453Z,1.70
2022-10-18T08:40:07.617Z,1.65
2022-10-18T08:42:58.877Z,2.10
2022-10-18T08:45:41.957Z,1.77
2022-10-18T08:48:22.267Z,1.88
2022-10-18T08:50:50.935Z,1.60
2022-10-18T08:53:36.159Z,2.15
2022-10-18T08:56:16.308Z,1.45
2022-10-18T08:58:46.632Z,1.88
2022-10-18T09:01:45.984Z,1.52
2022-10-18T09:04:18.213Z,1.73
2022-10-18T09:06:52.544Z,1.60
2022-10-18T09:09:42.545Z,1.50
2022-10-18T09:12:30.993Z,1.80
2022-10-18T09:15:07.325Z,1.42
2022-10-18T09:18:11.194Z,1.88
2022-10-18T09:23:28.494Z,1.77
2022-10-18T09:26:20.494Z,1.70
2022-10-18T09:28:59.144Z,1.60
2022-10-18T09:31:45.033Z,1.50
2022-10-18T09:34:39.500Z,2.00
2022-10-18T09:37:13.391Z,1.60
2022-10-18T09:39:40.196Z,1.75
2022-10-18T09:42:29.324Z,1.83
2022-10-18T09:45:00.880Z,1.65
2022-10-18T09:47:47.465Z,1.58
2022-10-18T09:50:34.407Z,1.50
2022-10-18T09:53:13.197Z,1.45
2022-10-18T09:55:59.424Z,1.63
2022-10-18T09:58:33.828Z,1.50
2022-10-18T10:01:00.527Z,1.45
2022-10-18T10:03:27.005Z,1.48
2022-10-18T10:06:11.719Z,1.63
2022-10-18T10:08:42.364Z,1.50
2022-10-18T10:11:28.468Z,1.50
2022-10-18T10:14:08.937Z,1.48
2022-10-18T10:16:43.894Z,1.42
2022-10-18T10:19:27.479Z,1.55
2022-10-18T10:22:01.979Z,1.33
2022-10-18T10:24:37.245Z,1.63
2022-10-18T10:27:07.363Z,1.33
2022-10-18T10:29:47.372Z,1.30
2022-10-18T10:32:19.105Z,1.63
2022-10-18T10:34:46.073Z,1.45
2022-10-18T10:37:36.330Z,1.65
2022-10-18T10:40:27.652Z,1.52
2022-10-18T10:43:32.898Z,1.48
2022-10-18T10:46:04.264Z,1.55
2022-10-18T10:48:34.091Z,1.75
2022-10-18T10:51:07.514Z,1.50
2022-10-18T10:56:01.048Z,1.25
2022-10-18T10:58:33.526Z,1.60
2022-10-18T11:01:18.834Z,1.75
2022-10-18T11:03:48.250Z,1.25
2022-10-18T11:07:07.106Z,1.40
2022-10-18T11:09:53.057Z,1.20
2022-10-18T11:12:33.866Z,1.15
2022-10-18T11:15:36.506Z,1.35
2022-10-18T11:18:23.909Z,1.10
2022-10-18T11:21:03.128Z,1.25
2022-10-18T11:23:32.770Z,1.25
2022-10-18T11:26:11.264Z,1.20
2022-10-18T11:28:52.637Z,1.30
2022-10-18T11:31:50.661Z,1.38
2022-10-18T11:34:38.161Z,1.45
2022-10-18T11:37:28.566Z,1.00
2022-10-18T11:40:02.315Z,1.40
2022-10-18T11:43:05.370Z,1.50
2022-10-18T11:45:49.859Z,1.50
2022-10-18T11:48:16.252Z,1.50
2022-10-18T11:50:59.904Z,1.30
2022-10-18T11:53:51.727Z,1.20
2022-10-18T11:56:37.254Z,1.20
2022-10-18T11:59:36.955Z,1.08
2022-10-18T12:02:18.502Z,1.20
2022-10-18T12:05:05.342Z,1.23
2022-10-18T12:07:45.209Z,1.83
2022-10-18T12:10:26.312Z,1.30
2022-10-18T12:13:08.028Z,1.20
2022-10-18T12:15:39.265Z,1.20
2022-10-18T12:18:11.556Z,1.35
2022-10-18T12:20:48.687Z,1.35
2022-10-18T12:23:30.242Z,1.15
2022-10-18T12:26:03.353Z,1.20
2022-10-18T12:28:32.550Z,1.13
2022-10-18T12:31:04.924Z,1.13
2022-10-18T12:33:38.493Z,1.08
2022-10-18T12:36:20.914Z,1.08
2022-10-18T12:38:58.051Z,1.38
2022-10-18T12:41:30.922Z,1.10
2022-10-18T12:44:03.268Z,1.08
2022-10-18T12:46:50.856Z,1.08
2022-10-18T12:49:41.455Z,1.27
2022-10-18T12:52:33.588Z,1.30
2022-10-18T12:55:18.318Z,1.30
2022-10-18T12:57:53.856Z,1.02
2022-10-18T13:00:29.531Z,1.10
2022-10-18T13:03:16.513Z,1.10
2022-10-18T13:05:56.416Z,0.75
2022-10-18T13:08:29.256Z,1.00
2022-10-18T13:11:01.685Z,1.13
2022-10-18T13:13:44.318Z,1.15
2022-10-18T13:16:21.984Z,1.00
2022-10-18T13:18:57.007Z,1.15
2022-10-18T13:21:43.394Z,1.40
2022-10-18T13:24:28.217Z,0.85
2022-10-18T13:27:24.306Z,0.85
2022-10-18T13:30:27.765Z,0.90
2022-10-18T13:33:31.815Z,1.10
2022-10-18T13:36:21.786Z,0.90
2022-10-18T13:39:04.351Z,1.13
2022-10-18T13:41:56.536Z,1.10
2022-10-18T13:44:28.632Z,0.98
2022-10-18T13:46:55.027Z,1.10
2022-10-18T13:49:39.777Z,0.80
2022-10-18T13:52:34.396Z,1.17
2022-10-18T13:55:03.842Z,0.80
2022-10-18T13:58:00.641Z,1.30
2022-10-18T14:00:49.028Z,1.20
2022-10-18T14:04:02.218Z,1.00
2022-10-18T14:06:35.313Z,0.82
2022-10-18T14:09:40.191Z,0.95
2022-10-18T14:12:26.616Z,1.00
2022-10-18T14:15:05.555Z,0.90
2022-10-18T14:17:46.518Z,1.13
2022-10-18T14:20:29.416Z,0.88
2022-10-18T14:23:16.042Z,0.80
2022-10-18T14:25:43.172Z,1.00
2022-10-18T14:28:18.517Z,0.95
2022-10-18T14:31:09.282Z,1.15
2022-10-18T14:33:40.774Z,1.00
2022-10-18T14:36:15.852Z,1.23
2022-10-18T14:38:51.293Z,0.90
2022-10-18T14:41:22.382Z,1.30
2022-10-18T14:43:50.094Z,0.80
2022-10-18T14:46:28.977Z,0.80
2022-10-18T14:49:04.201Z,1.10
2022-10-18T14:51:35.438Z,1.23
2022-10-18T14:54:02.813Z,0.90
2022-10-18T14:56:31.522Z,0.93
2022-10-18T14:59:02.187Z,0.80
2022-10-18T15:01:31.234Z,0.77
2022-10-18T15:04:05.267Z,1.00
2022-10-18T15:06:32.816Z,1.25
2022-10-18T15:09:01.986Z,0.73
2022-10-18T15:11:28.783Z,1.20
2022-10-18T15:13:59.085Z,0.95
2022-10-18T15:16:28.610Z,0.88
2022-10-18T15:19:28.742Z,1.00
2022-10-18T15:22:19.814Z,0.80
2022-10-18T15:24:44.992Z,0.73
2022-10-18T15:27:20.965Z,0.80
2022-10-18T15:29:47.745Z,0.70
2022-10-18T15:32:28.209Z,0.88
2022-10-18T15:35:06.092Z,1.00
2022-10-18T15:37:41.324Z,0.90
2022-10-18T15:40:22.990Z,0.85
2022-10-18T15:42:51.090Z,1.00
2022-10-18T15:45:23.484Z,1.00
2022-10-18T15:48:18.228Z,0.98
2022-10-18T15:51:06.069Z,0.90
2022-10-18T15:53:35.198Z,1.17
2022-10-18T15:56:21.993Z,0.88
2022-10-18T15:58:49.037Z,1.10
2022-10-18T16:01:21.291Z,0.95
2022-10-18T16:03:49.613Z,0.90
2022-10-18T16:06:18.383Z,1.00
2022-10-18T16:08:50.895Z,0.93
2022-10-18T16:11:21.376Z,1.00
2022-10-18T16:13:48.672Z,0.93
2022-10-18T16:16:18.570Z,0.80
2022-10-18T16:18:45.284Z,1.13
2022-10-18T16:21:22.026Z,0.82
2022-10-18T16:23:49.252Z,0.80
2022-10-18T16:26:17.107Z,1.05
2022-10-18T16:28:44.329Z,0.90
2022-10-18T16:31:19.608Z,0.90
2022-10-18T16:33:46.897Z,0.90
2022-10-18T16:36:19.667Z,0.90
2022-10-18T16:38:47.456Z,1.20
2022-10-18T16:41:15.789Z,1.10
2022-10-18T16:43:47.090Z,1.15
2022-10-18T16:46:20.201Z,0.80
2022-10-18T16:48:48.563Z,1.00
2022-10-18T16:51:15.376Z,0.98
2022-10-18T16:53:41.868Z,1.05
2022-10-18T16:56:20.732Z,0.98
2022-10-18T16:58:47.841Z,1.10
2022-10-18T17:01:17.525Z,0.95
2022-10-18T17:03:44.525Z,0.80
2022-10-18T17:06:24.093Z,1.10
2022-10-18T17:08:51.941Z,1.35
2022-10-18T17:11:19.324Z,0.90
2022-10-18T17:18:57.469Z,1.30
2022-10-18T17:21:25.316Z,0.77
2022-10-18T17:23:51.881Z,0.95
2022-10-18T17:26:28.966Z,1.15
2022-10-18T17:29:00.119Z,1.05
2022-10-18T17:31:28.050Z,1.02
2022-10-18T17:33:55.364Z,1.08
2022-10-18T17:38:52.190Z,0.93
2022-10-18T17:41:19.011Z,0.90
2022-10-18T17:43:45.518Z,1.00
2022-10-18T17:46:13.229Z,0.95
2022-10-18T17:48:40.445Z,1.05
2022-10-18T17:51:09.016Z,1.23
2022-10-18T17:53:35.605Z,0.77
2022-10-18T17:56:03.408Z,1.10
2022-10-18T17:58:30.425Z,1.08
2022-10-18T18:00:56.921Z,1.25
2022-10-18T18:03:23.486Z,0.98
2022-10-18T18:05:49.997Z,1.27
2022-10-18T18:08:16.477Z,1.00
2022-10-18T18:10:42.951Z,0.82
2022-10-18T18:13:09.496Z,1.20
2022-10-18T18:15:35.996Z,1.13
2022-10-18T18:18:02.518Z,1.13
2022-10-18T18:20:28.994Z,1.27
2022-10-18T18:22:55.467Z,1.40
2022-10-18T18:25:21.952Z,1.20
2022-10-18T18:27:48.386Z,0.93
2022-10-18T18:30:17.674Z,1.00
2022-10-18T18:32:44.205Z,1.30
2022-10-18T18:35:10.700Z,1.20
2022-10-18T18:37:37.218Z,1.05
2022-10-18T18:40:04.229Z,1.00
2022-10-18T18:42:31.939Z,1.00
2022-10-18T18:44:58.641Z,1.30
2022-10-18T18:47:25.191Z,1.00
2022-10-18T18:49:51.682Z,0.80
2022-10-18T18:52:18.202Z,1.10
2022-10-18T18:54:46.389Z,1.23
2022-10-18T18:57:12.867Z,1.15
2022-10-18T18:59:39.452Z,1.10
2022-10-18T19:02:05.932Z,1.15
2022-10-18T19:04:32.882Z,1.00
2022-10-18T19:06:59.346Z,1.10
2022-10-18T19:09:27.361Z,0.90
2022-10-18T19:11:56.018Z,1.00
2022-10-18T19:14:24.792Z,1.10
2022-10-18T19:16:54.456Z,0.85
2022-10-18T19:19:23.342Z,1.20
2022-10-18T19:21:55.142Z,0.90
2022-10-18T19:24:23.725Z,0.80
2022-10-18T19:27:02.696Z,1.60
2022-10-18T19:29:30.388Z,1.30
2022-10-18T19:31:59.894Z,1.30
2022-10-18T19:34:28.041Z,1.30
2022-10-18T19:36:55.269Z,1.15
2022-10-18T19:39:24.355Z,0.90
2022-10-18T19:41:55.119Z,1.00
2022-10-18T19:44:23.464Z,1.10
2022-10-18T19:46:50.480Z,1.20
2022-10-18T19:49:17.702Z,1.27
2022-10-18T19:51:44.616Z,1.08
2022-10-18T19:54:12.463Z,1.20
2022-10-18T19:56:39.033Z,1.00
2022-10-18T19:59:05.535Z,1.20
2022-10-18T20:01:32.211Z,0.93
2022-10-18T20:03:59.037Z,1.20
2022-10-18T20:06:25.873Z,1.17
2022-10-18T20:08:52.795Z,1.10
2022-10-18T20:11:23.005Z,1.10
2022-10-18T20:13:49.972Z,1.20
2022-10-18T20:16:18.044Z,1.10
2022-10-18T20:18:44.592Z,1.10
2022-10-18T20:21:13.037Z,1.20
2022-10-18T20:23:40.936Z,1.10
2022-10-18T20:26:11.040Z,1.25
2022-10-18T20:28:38.444Z,1.35
2022-10-18T20:33:34.145Z,1.10
2022-10-18T20:36:05.288Z,1.10
2022-10-18T20:38:33.747Z,0.93
2022-10-18T20:41:27.905Z,1.05
2022-10-18T20:44:16.633Z,1.13
2022-10-18T20:46:44.089Z,1.20
2022-10-18T20:49:14.533Z,1.40
2022-10-18T20:51:41.763Z,1.20
2022-10-18T20:54:09.657Z,1.02
2022-10-18T20:56:38.642Z,1.10
2022-10-18T20:59:06.345Z,1.27
2022-10-18T21:01:34.478Z,1.20
2022-10-18T21:04:04.148Z,1.20
2022-10-18T21:06:33.713Z,1.38
2022-10-18T21:09:02.990Z,1.25
2022-10-18T21:11:31.736Z,1.10
2022-10-18T21:14:02.620Z,1.25
2022-10-18T21:16:31.099Z,1.20
2022-10-18T21:19:05.804Z,1.08
2022-10-18T21:21:32.695Z,1.30
2022-10-18T21:24:02.457Z,1.40
2022-10-18T21:26:31.971Z,1.17
2022-10-18T21:28:59.754Z,0.90
2022-10-18T21:31:28.449Z,1.10
2022-10-18T21:33:57.713Z,1.20
2022-10-18T21:36:24.494Z,1.08
2022-10-18T21:38:51.304Z,1.13
2022-10-18T21:41:19.895Z,1.05
2022-10-18T21:43:49.413Z,1.10
2022-10-18T21:46:17.417Z,1.10
2022-10-18T21:48:45.928Z,1.20
2022-10-18T21:51:14.009Z,0.95
2022-10-18T21:53:44.047Z,0.90
2022-10-18T21:56:13.085Z,1.05
2022-10-18T21:58:40.439Z,1.08
2022-10-18T22:03:41.992Z,1.27
2022-10-18T22:06:13.529Z,0.90
2022-10-18T22:09:01.031Z,0.95
2022-10-18T22:11:33.147Z,0.80
2022-10-18T22:14:00.726Z,1.27
2022-10-18T22:16:28.013Z,1.27
2022-10-18T22:18:58.405Z,1.20
2022-10-18T22:21:25.076Z,1.20
2022-10-18T22:23:53.727Z,1.13
2022-10-18T22:26:24.611Z,1.02
2022-10-18T22:29:00.761Z,1.52
2022-10-18T22:31:30.360Z,1.05
2022-10-18T22:33:59.937Z,1.10
2022-10-18T22:36:27.304Z,1.10
2022-10-18T22:41:20.503Z,1.00
2022-10-18T22:43:49.853Z,1.00
2022-10-18T22:46:16.878Z,1.27
2022-10-18T22:48:44.460Z,1.23
2022-10-18T22:51:11.639Z,1.10
2022-10-18T22:53:39.748Z,0.90
2022-10-18T22:56:07.722Z,1.30
2022-10-18T22:58:34.545Z,0.98
2022-10-18T23:01:07.089Z,1.33
2022-10-18T23:03:33.793Z,0.95
2022-10-18T23:06:00.456Z,0.93
2022-10-18T23:08:27.603Z,1.10
2022-10-18T23:10:56.179Z,1.00
2022-10-18T23:13:24.095Z,1.85
2022-10-18T23:15:50.942Z,0.65
2022-10-18T23:18:18.260Z,1.13
2022-10-18T23:23:12.887Z,0.80
2022-10-18T23:25:39.875Z,0.93
2022-10-18T23:28:06.370Z,0.98
2022-10-18T23:30:32.897Z,1.00
2022-10-18T23:32:59.332Z,1.08
2022-10-18T23:35:25.824Z,0.93
2022-10-18T23:37:52.709Z,1.10
2022-10-18T23:40:19.212Z,0.90
2022-10-18T23:42:45.751Z,1.10
2022-10-18T23:45:12.253Z,0.80
2022-10-18T23:47:38.737Z,0.98
2022-10-18T23:50:05.824Z,0.90
2022-10-18T23:52:32.272Z,0.88
2022-10-18T23:54:58.721Z,1.10
2022-10-18T23:57:25.284Z,0.93
2022-10-18T23:59:51.730Z,1.00
